sensor_id;sensor_type;location;lat;lon;timestamp;pressure;altitude;pressure_sealevel;temperature;humidity
10460;BME280;54412;51.206;6.888;2023-04-06T00:01:38;101112.84;;;7.79;48.13
10460;BME280;54412;51.206;6.888;2023-04-06T00:04:05;101118.50;;;7.65;48.31
10460;BME280;54412;51.206;6.888;2023-04-06T00:06:31;101111.22;;;7.46;48.60
10460;BME280;54412;51.206;6.888;2023-04-06T00:08:58;101111.97;;;7.49;48.90
10460;BME280;54412;51.206;6.888;2023-04-06T00:11:23;101108.25;;;7.56;49.52
10460;BME280;54412;51.206;6.888;2023-04-06T00:13:49;101098.53;;;7.60;49.25
10460;BME280;54412;51.206;6.888;2023-04-06T00:16:15;101097.50;;;7.36;50.26
10460;BME280;54412;51.206;6.888;2023-04-06T00:18:41;101105.56;;;7.30;50.20
10460;BME280;54412;51.206;6.888;2023-04-06T00:21:06;101099.28;;;7.35;49.74
10460;BME280;54412;51.206;6.888;2023-04-06T00:23:32;101100.06;;;7.08;50.74
10460;BME280;54412;51.206;6.888;2023-04-06T00:25:58;101096.88;;;7.28;50.15
10460;BME280;54412;51.206;6.888;2023-04-06T00:28:23;101100.59;;;7.21;50.53
10460;BME280;54412;51.206;6.888;2023-04-06T00:30:52;101091.38;;;7.06;50.66
10460;BME280;54412;51.206;6.888;2023-04-06T00:33:20;101090.91;;;6.92;50.63
10460;BME280;54412;51.206;6.888;2023-04-06T00:35:46;101091.91;;;7.19;50.49
10460;BME280;54412;51.206;6.888;2023-04-06T00:38:12;101088.44;;;7.17;50.53
10460;BME280;54412;51.206;6.888;2023-04-06T00:40:38;101091.13;;;7.15;50.17
10460;BME280;54412;51.206;6.888;2023-04-06T00:43:06;101082.78;;;7.01;51.17
10460;BME280;54412;51.206;6.888;2023-04-06T00:45:33;101094.16;;;7.00;50.74
10460;BME280;54412;51.206;6.888;2023-04-06T00:47:59;101086.69;;;7.17;50.75
10460;BME280;54412;51.206;6.888;2023-04-06T00:50:25;101075.44;;;7.12;50.91
10460;BME280;54412;51.206;6.888;2023-04-06T00:52:50;101070.03;;;7.18;50.87
10460;BME280;54412;51.206;6.888;2023-04-06T00:55:17;101072.41;;;6.97;50.56
10460;BME280;54412;51.206;6.888;2023-04-06T00:57:43;101076.78;;;6.98;50.44
10460;BME280;54412;51.206;6.888;2023-04-06T01:00:10;101063.72;;;6.95;50.74
10460;BME280;54412;51.206;6.888;2023-04-06T01:02:36;101064.06;;;7.13;50.51
10460;BME280;54412;51.206;6.888;2023-04-06T01:05:02;101060.50;;;7.16;50.59
10460;BME280;54412;51.206;6.888;2023-04-06T01:07:28;101059.97;;;7.03;50.48
10460;BME280;54412;51.206;6.888;2023-04-06T01:09:54;101066.13;;;7.02;50.02
10460;BME280;54412;51.206;6.888;2023-04-06T01:12:20;101052.59;;;7.17;49.77
10460;BME280;54412;51.206;6.888;2023-04-06T01:14:46;101046.03;;;7.03;50.48
10460;BME280;54412;51.206;6.888;2023-04-06T01:17:12;101048.56;;;7.06;50.60
10460;BME280;54412;51.206;6.888;2023-04-06T01:19:37;101050.03;;;7.16;50.00
10460;BME280;54412;51.206;6.888;2023-04-06T01:22:05;101045.53;;;6.90;50.24
10460;BME280;54412;51.206;6.888;2023-04-06T01:24:30;101041.09;;;6.92;50.24
10460;BME280;54412;51.206;6.888;2023-04-06T01:26:56;101037.88;;;6.83;50.06
10460;BME280;54412;51.206;6.888;2023-04-06T01:29:22;101041.00;;;6.95;49.90
10460;BME280;54412;51.206;6.888;2023-04-06T01:31:47;101032.97;;;6.71;50.15
10460;BME280;54412;51.206;6.888;2023-04-06T01:34:13;101039.16;;;6.99;49.75
10460;BME280;54412;51.206;6.888;2023-04-06T01:36:39;101035.81;;;6.94;49.05
10460;BME280;54412;51.206;6.888;2023-04-06T01:39:04;101037.75;;;6.86;49.12
10460;BME280;54412;51.206;6.888;2023-04-06T01:41:30;101028.56;;;6.73;49.06
10460;BME280;54412;51.206;6.888;2023-04-06T01:43:56;101033.25;;;6.91;48.99
10460;BME280;54412;51.206;6.888;2023-04-06T01:46:22;101030.16;;;6.77;49.40
10460;BME280;54412;51.206;6.888;2023-04-06T01:48:47;101025.69;;;6.80;48.89
10460;BME280;54412;51.206;6.888;2023-04-06T01:51:13;101026.13;;;6.96;48.85
10460;BME280;54412;51.206;6.888;2023-04-06T01:53:39;101029.22;;;6.79;49.42
10460;BME280;54412;51.206;6.888;2023-04-06T01:56:05;101020.94;;;6.93;48.82
10460;BME280;54412;51.206;6.888;2023-04-06T01:58:31;101024.53;;;6.90;49.24
10460;BME280;54412;51.206;6.888;2023-04-06T02:00:56;101016.53;;;6.95;49.42
10460;BME280;54412;51.206;6.888;2023-04-06T02:03:22;101023.00;;;6.83;50.10
10460;BME280;54412;51.206;6.888;2023-04-06T02:05:48;101027.59;;;6.75;49.96
10460;BME280;54412;51.206;6.888;2023-04-06T02:08:13;101020.69;;;6.71;50.15
10460;BME280;54412;51.206;6.888;2023-04-06T02:10:39;101019.59;;;6.80;50.52
10460;BME280;54412;51.206;6.888;2023-04-06T02:13:05;101015.41;;;6.74;50.62
10460;BME280;54412;51.206;6.888;2023-04-06T02:15:31;101015.59;;;6.67;50.75
10460;BME280;54412;51.206;6.888;2023-04-06T02:17:57;101015.81;;;6.59;51.25
10460;BME280;54412;51.206;6.888;2023-04-06T02:20:23;101018.53;;;6.56;51.65
10460;BME280;54412;51.206;6.888;2023-04-06T02:22:48;101010.63;;;6.88;50.11
10460;BME280;54412;51.206;6.888;2023-04-06T02:25:14;101012.25;;;6.62;51.01
10460;BME280;54412;51.206;6.888;2023-04-06T02:27:40;101020.63;;;6.44;51.33
10460;BME280;54412;51.206;6.888;2023-04-06T02:30:06;101016.00;;;6.52;50.96
10460;BME280;54412;51.206;6.888;2023-04-06T02:32:32;101012.72;;;6.45;51.38
10460;BME280;54412;51.206;6.888;2023-04-06T02:34:58;101013.19;;;6.59;51.12
10460;BME280;54412;51.206;6.888;2023-04-06T02:37:23;101007.22;;;6.22;51.78
10460;BME280;54412;51.206;6.888;2023-04-06T02:39:50;100993.66;;;6.71;50.88
10460;BME280;54412;51.206;6.888;2023-04-06T02:42:16;101005.13;;;6.67;50.63
10460;BME280;54412;51.206;6.888;2023-04-06T02:44:42;100997.19;;;6.38;50.68
10460;BME280;54412;51.206;6.888;2023-04-06T02:47:08;101005.63;;;6.49;50.85
10460;BME280;54412;51.206;6.888;2023-04-06T02:49:34;100998.44;;;6.55;51.16
10460;BME280;54412;51.206;6.888;2023-04-06T02:52:00;100998.16;;;6.33;51.80
10460;BME280;54412;51.206;6.888;2023-04-06T02:54:26;100996.31;;;6.37;51.21
10460;BME280;54412;51.206;6.888;2023-04-06T02:56:51;100998.50;;;6.21;51.81
10460;BME280;54412;51.206;6.888;2023-04-06T02:59:17;100996.00;;;6.49;51.21
10460;BME280;54412;51.206;6.888;2023-04-06T03:01:42;100991.75;;;6.45;51.18
10460;BME280;54412;51.206;6.888;2023-04-06T03:04:08;100995.97;;;6.51;51.22
10460;BME280;54412;51.206;6.888;2023-04-06T03:06:34;100999.47;;;6.50;50.77
10460;BME280;54412;51.206;6.888;2023-04-06T03:08:59;100997.50;;;6.58;50.54
10460;BME280;54412;51.206;6.888;2023-04-06T03:11:25;100994.72;;;6.31;50.83
10460;BME280;54412;51.206;6.888;2023-04-06T03:13:52;100993.69;;;6.39;51.75
10460;BME280;54412;51.206;6.888;2023-04-06T03:16:17;100994.97;;;6.24;51.86
10460;BME280;54412;51.206;6.888;2023-04-06T03:18:43;100987.88;;;6.26;51.98
10460;BME280;54412;51.206;6.888;2023-04-06T03:21:10;100989.72;;;6.22;51.99
10460;BME280;54412;51.206;6.888;2023-04-06T03:23:36;100991.13;;;6.35;51.55
10460;BME280;54412;51.206;6.888;2023-04-06T03:26:02;100989.50;;;6.31;51.55
10460;BME280;54412;51.206;6.888;2023-04-06T03:28:29;100989.19;;;6.44;51.79
10460;BME280;54412;51.206;6.888;2023-04-06T03:30:54;100988.59;;;6.32;52.01
10460;BME280;54412;51.206;6.888;2023-04-06T03:33:20;100986.84;;;6.33;51.80
10460;BME280;54412;51.206;6.888;2023-04-06T03:35:46;100984.97;;;6.38;51.25
10460;BME280;54412;51.206;6.888;2023-04-06T03:38:11;100989.50;;;6.31;50.82
10460;BME280;54412;51.206;6.888;2023-04-06T03:40:37;100994.97;;;6.24;50.64
10460;BME280;54412;51.206;6.888;2023-04-06T03:43:03;100993.78;;;6.34;50.37
10460;BME280;54412;51.206;6.888;2023-04-06T03:45:29;100990.69;;;6.20;49.88
10460;BME280;54412;51.206;6.888;2023-04-06T03:47:55;100989.97;;;6.15;50.36
10460;BME280;54412;51.206;6.888;2023-04-06T03:50:20;100990.06;;;6.73;47.82
10460;BME280;54412;51.206;6.888;2023-04-06T03:52:46;100991.34;;;6.60;48.42
10460;BME280;54412;51.206;6.888;2023-04-06T03:55:12;100998.38;;;6.58;48.92
10460;BME280;54412;51.206;6.888;2023-04-06T03:57:37;100988.16;;;6.49;49.47
10460;BME280;54412;51.206;6.888;2023-04-06T04:00:04;100990.97;;;6.42;49.69
10460;BME280;54412;51.206;6.888;2023-04-06T04:02:30;100991.06;;;6.39;50.06
10460;BME280;54412;51.206;6.888;2023-04-06T04:04:56;100989.19;;;6.44;49.82
10460;BME280;54412;51.206;6.888;2023-04-06T04:07:21;100991.81;;;6.11;49.60
10460;BME280;54412;51.206;6.888;2023-04-06T04:09:47;100990.44;;;6.29;50.56
10460;BME280;54412;51.206;6.888;2023-04-06T04:12:13;100987.75;;;6.32;50.35
10460;BME280;54412;51.206;6.888;2023-04-06T04:14:40;100994.88;;;6.27;50.93
10460;BME280;54412;51.206;6.888;2023-04-06T04:17:05;100993.06;;;5.97;51.13
10460;BME280;54412;51.206;6.888;2023-04-06T04:19:31;100992.41;;;6.21;51.29
10460;BME280;54412;51.206;6.888;2023-04-06T04:21:57;100984.22;;;6.33;50.97
10460;BME280;54412;51.206;6.888;2023-04-06T04:24:22;100991.63;;;6.17;50.75
10460;BME280;54412;51.206;6.888;2023-04-06T04:26:48;100988.50;;;6.35;50.93
10460;BME280;54412;51.206;6.888;2023-04-06T04:29:14;100986.97;;;6.28;51.29
10460;BME280;54412;51.206;6.888;2023-04-06T04:31:40;100993.41;;;6.17;51.43
10460;BME280;54412;51.206;6.888;2023-04-06T04:34:06;100985.03;;;6.03;51.96
10460;BME280;54412;51.206;6.888;2023-04-06T04:36:32;100993.97;;;5.94;51.82
10460;BME280;54412;51.206;6.888;2023-04-06T04:38:58;100986.84;;;5.99;51.41
10460;BME280;54412;51.206;6.888;2023-04-06T04:41:24;100996.75;;;6.22;51.27
10460;BME280;54412;51.206;6.888;2023-04-06T04:43:49;100991.81;;;6.10;51.85
10460;BME280;54412;51.206;6.888;2023-04-06T04:46:15;100987.16;;;6.21;51.46
10460;BME280;54412;51.206;6.888;2023-04-06T04:48:41;100991.31;;;5.96;51.93
10460;BME280;54412;51.206;6.888;2023-04-06T04:51:06;100988.81;;;6.25;51.59
10460;BME280;54412;51.206;6.888;2023-04-06T04:53:32;100984.13;;;6.04;51.93
10460;BME280;54412;51.206;6.888;2023-04-06T04:55:58;100992.09;;;5.99;52.04
10460;BME280;54412;51.206;6.888;2023-04-06T04:58:23;100987.53;;;6.07;51.77
10460;BME280;54412;51.206;6.888;2023-04-06T05:00:49;100989.25;;;6.08;51.13
10460;BME280;54412;51.206;6.888;2023-04-06T05:03:25;100989.44;;;6.01;51.01
10460;BME280;54412;51.206;6.888;2023-04-06T05:05:52;100979.50;;;6.13;51.13
10460;BME280;54412;51.206;6.888;2023-04-06T05:08:18;100984.16;;;6.36;50.46
10460;BME280;54412;51.206;6.888;2023-04-06T05:10:44;100990.25;;;6.04;50.75
10460;BME280;54412;51.206;6.888;2023-04-06T05:13:11;100991.25;;;5.99;51.65
10460;BME280;54412;51.206;6.888;2023-04-06T05:15:37;100994.66;;;6.01;51.55
10460;BME280;54412;51.206;6.888;2023-04-06T05:18:08;100995.59;;;6.00;50.10
10460;BME280;54412;51.206;6.888;2023-04-06T05:20:35;100993.78;;;6.02;49.92
10460;BME280;54412;51.206;6.888;2023-04-06T05:23:01;100992.50;;;6.18;49.85
10460;BME280;54412;51.206;6.888;2023-04-06T05:25:27;100994.63;;;6.36;50.27
10460;BME280;54412;51.206;6.888;2023-04-06T05:27:53;101001.84;;;6.26;50.68
10460;BME280;54412;51.206;6.888;2023-04-06T05:30:19;100999.72;;;6.42;49.37
10460;BME280;54412;51.206;6.888;2023-04-06T05:32:46;100997.25;;;6.36;48.90
10460;BME280;54412;51.206;6.888;2023-04-06T05:35:12;101002.81;;;6.22;50.04
10460;BME280;54412;51.206;6.888;2023-04-06T05:37:38;100994.66;;;6.34;50.13
10460;BME280;54412;51.206;6.888;2023-04-06T05:40:05;100999.72;;;6.42;48.98
10460;BME280;54412;51.206;6.888;2023-04-06T05:42:41;100990.44;;;6.61;47.91
10460;BME280;54412;51.206;6.888;2023-04-06T05:45:09;100987.19;;;6.52;48.98
10460;BME280;54412;51.206;6.888;2023-04-06T05:47:43;100995.91;;;6.52;47.94
10460;BME280;54412;51.206;6.888;2023-04-06T05:50:10;100996.03;;;6.48;48.08
10460;BME280;54412;51.206;6.888;2023-04-06T05:52:36;100997.75;;;6.79;46.71
10460;BME280;54412;51.206;6.888;2023-04-06T05:55:03;101000.94;;;6.60;47.77
10460;BME280;54412;51.206;6.888;2023-04-06T05:57:29;101000.25;;;6.53;47.02
10460;BME280;54412;51.206;6.888;2023-04-06T05:59:55;101005.13;;;6.67;46.78
10460;BME280;54412;51.206;6.888;2023-04-06T06:02:21;101003.63;;;6.87;46.00
10460;BME280;54412;51.206;6.888;2023-04-06T06:04:47;100999.81;;;6.99;45.29
10460;BME280;54412;51.206;6.888;2023-04-06T06:07:14;101000.38;;;6.79;46.11
10460;BME280;54412;51.206;6.888;2023-04-06T06:09:40;100995.88;;;6.84;45.94
10460;BME280;54412;51.206;6.888;2023-04-06T06:12:06;101001.81;;;6.89;45.62
10460;BME280;54412;51.206;6.888;2023-04-06T06:14:32;100995.75;;;6.87;45.35
10460;BME280;54412;51.206;6.888;2023-04-06T06:16:57;101002.75;;;7.17;44.86
10460;BME280;54412;51.206;6.888;2023-04-06T06:19:23;100991.97;;;7.26;44.48
10460;BME280;54412;51.206;6.888;2023-04-06T06:21:49;100993.91;;;7.20;44.58
10460;BME280;54412;51.206;6.888;2023-04-06T06:24:14;100989.97;;;7.34;44.45
10460;BME280;54412;51.206;6.888;2023-04-06T06:26:40;100987.25;;;7.10;44.81
10460;BME280;54412;51.206;6.888;2023-04-06T06:29:07;100984.53;;;7.40;43.95
10460;BME280;54412;51.206;6.888;2023-04-06T06:31:33;100997.22;;;7.54;43.96
10460;BME280;54412;51.206;6.888;2023-04-06T06:33:58;100992.31;;;7.43;43.92
10460;BME280;54412;51.206;6.888;2023-04-06T06:36:25;100994.78;;;7.48;44.03
10460;BME280;54412;51.206;6.888;2023-04-06T06:38:51;100995.63;;;7.76;43.19
10460;BME280;54412;51.206;6.888;2023-04-06T06:41:17;100997.38;;;7.76;43.15
10460;BME280;54412;51.206;6.888;2023-04-06T06:43:43;100997.75;;;7.91;42.77
10460;BME280;54412;51.206;6.888;2023-04-06T06:46:08;100996.00;;;7.90;42.51
10460;BME280;54412;51.206;6.888;2023-04-06T06:48:34;100998.50;;;7.95;42.62
10460;BME280;54412;51.206;6.888;2023-04-06T06:51:00;100996.25;;;7.83;42.84
10460;BME280;54412;51.206;6.888;2023-04-06T06:53:26;100993.28;;;7.93;42.58
10460;BME280;54412;51.206;6.888;2023-04-06T06:55:51;100991.47;;;7.95;42.65
10460;BME280;54412;51.206;6.888;2023-04-06T06:58:20;100999.34;;;7.69;42.90
10460;BME280;54412;51.206;6.888;2023-04-06T07:00:46;100996.38;;;7.80;42.64
10460;BME280;54412;51.206;6.888;2023-04-06T07:03:12;100997.53;;;7.97;42.71
10460;BME280;54412;51.206;6.888;2023-04-06T07:05:38;100989.72;;;8.20;42.20
10460;BME280;54412;51.206;6.888;2023-04-06T07:08:04;100990.16;;;8.34;41.82
10460;BME280;54412;51.206;6.888;2023-04-06T07:10:30;100986.53;;;8.37;41.53
10460;BME280;54412;51.206;6.888;2023-04-06T07:12:56;100985.03;;;8.30;42.17
10460;BME280;54412;51.206;6.888;2023-04-06T07:15:22;100978.72;;;8.35;41.99
10460;BME280;54412;51.206;6.888;2023-04-06T07:17:48;100981.09;;;8.17;42.28
10460;BME280;54412;51.206;6.888;2023-04-06T07:20:14;100980.00;;;8.22;42.30
10460;BME280;54412;51.206;6.888;2023-04-06T07:22:43;100978.81;;;8.57;41.62
10460;BME280;54412;51.206;6.888;2023-04-06T07:25:10;100984.75;;;8.85;41.34
10460;BME280;54412;51.206;6.888;2023-04-06T07:27:35;100982.38;;;9.02;41.49
10460;BME280;54412;51.206;6.888;2023-04-06T07:30:01;100973.16;;;9.35;40.75
10460;BME280;54412;51.206;6.888;2023-04-06T07:32:27;100974.66;;;9.42;40.16
10460;BME280;54412;51.206;6.888;2023-04-06T07:34:53;100971.31;;;9.59;40.28
10460;BME280;54412;51.206;6.888;2023-04-06T07:37:19;100969.38;;;9.64;39.82
10460;BME280;54412;51.206;6.888;2023-04-06T07:39:44;100966.06;;;9.37;40.57
10460;BME280;54412;51.206;6.888;2023-04-06T07:42:10;100970.28;;;9.41;40.59
10460;BME280;54412;51.206;6.888;2023-04-06T07:44:36;100958.50;;;9.28;40.99
10460;BME280;54412;51.206;6.888;2023-04-06T07:47:02;100968.00;;;9.32;40.94
10460;BME280;54412;51.206;6.888;2023-04-06T07:49:27;100968.59;;;9.40;40.66
10460;BME280;54412;51.206;6.888;2023-04-06T07:51:54;100963.38;;;9.81;40.25
10460;BME280;54412;51.206;6.888;2023-04-06T07:54:19;100970.00;;;9.91;40.07
10460;BME280;54412;51.206;6.888;2023-04-06T07:56:45;100957.97;;;10.25;39.79
10460;BME280;54412;51.206;6.888;2023-04-06T07:59:11;100966.19;;;9.98;40.00
10460;BME280;54412;51.206;6.888;2023-04-06T08:01:37;100957.97;;;10.05;39.73
10460;BME280;54412;51.206;6.888;2023-04-06T08:04:03;100972.19;;;10.01;39.48
10460;BME280;54412;51.206;6.888;2023-04-06T08:06:28;100958.19;;;10.21;39.25
10460;BME280;54412;51.206;6.888;2023-04-06T08:08:54;100963.41;;;10.22;39.20
10460;BME280;54412;51.206;6.888;2023-04-06T08:11:20;100964.41;;;10.20;39.36
10460;BME280;54412;51.206;6.888;2023-04-06T08:13:46;100952.59;;;10.28;38.98
10460;BME280;54412;51.206;6.888;2023-04-06T08:16:12;100949.34;;;10.42;39.29
10460;BME280;54412;51.206;6.888;2023-04-06T08:18:37;100952.88;;;10.61;38.88
10460;BME280;54412;51.206;6.888;2023-04-06T08:21:03;100948.25;;;10.85;38.54
10460;BME280;54412;51.206;6.888;2023-04-06T08:23:29;100956.03;;;11.06;38.09
10460;BME280;54412;51.206;6.888;2023-04-06T08:25:54;100957.41;;;11.15;38.42
10460;BME280;54412;51.206;6.888;2023-04-06T08:28:21;100949.75;;;11.09;37.84
10460;BME280;54412;51.206;6.888;2023-04-06T08:30:47;100953.34;;;11.08;37.92
10460;BME280;54412;51.206;6.888;2023-04-06T08:33:13;100955.59;;;11.15;38.16
10460;BME280;54412;51.206;6.888;2023-04-06T08:35:39;100954.59;;;11.36;37.82
10460;BME280;54412;51.206;6.888;2023-04-06T08:38:04;100955.38;;;11.38;37.70
10460;BME280;54412;51.206;6.888;2023-04-06T08:40:39;100953.44;;;11.42;37.67
10460;BME280;54412;51.206;6.888;2023-04-06T08:43:10;100953.47;;;11.59;37.71
10460;BME280;54412;51.206;6.888;2023-04-06T08:45:40;100949.56;;;11.68;37.31
10460;BME280;54412;51.206;6.888;2023-04-06T08:48:06;100947.94;;;11.82;36.74
10460;BME280;54412;51.206;6.888;2023-04-06T08:50:33;100942.81;;;11.79;36.75
10460;BME280;54412;51.206;6.888;2023-04-06T08:52:59;100932.72;;;12.04;36.88
10460;BME280;54412;51.206;6.888;2023-04-06T08:55:27;100939.34;;;11.96;36.27
10460;BME280;54412;51.206;6.888;2023-04-06T08:57:54;100940.34;;;12.10;36.41
10460;BME280;54412;51.206;6.888;2023-04-06T09:00:21;100931.19;;;12.33;36.00
10460;BME280;54412;51.206;6.888;2023-04-06T09:02:49;100931.63;;;12.58;36.01
10460;BME280;54412;51.206;6.888;2023-04-06T09:05:15;100943.56;;;12.32;36.41
10460;BME280;54412;51.206;6.888;2023-04-06T09:07:41;100942.59;;;12.50;35.60
10460;BME280;54412;51.206;6.888;2023-04-06T09:10:08;100939.66;;;12.39;35.85
10460;BME280;54412;51.206;6.888;2023-04-06T09:12:34;100945.84;;;12.06;36.32
10460;BME280;54412;51.206;6.888;2023-04-06T09:15:01;100938.31;;;12.15;36.42
10460;BME280;54412;51.206;6.888;2023-04-06T09:17:30;100935.78;;;12.29;36.05
10460;BME280;54412;51.206;6.888;2023-04-06T09:19:59;100942.25;;;12.41;36.91
10460;BME280;54412;51.206;6.888;2023-04-06T09:22:34;100932.94;;;12.34;36.29
10460;BME280;54412;51.206;6.888;2023-04-06T09:25:00;100929.13;;;12.22;36.70
10460;BME280;54412;51.206;6.888;2023-04-06T09:27:34;100930.41;;;12.48;36.67
10460;BME280;54412;51.206;6.888;2023-04-06T09:30:09;100930.59;;;12.60;36.58
10460;BME280;54412;51.206;6.888;2023-04-06T09:32:56;100928.84;;;12.77;35.79
10460;BME280;54412;51.206;6.888;2023-04-06T09:35:23;100922.44;;;12.81;36.24
10460;BME280;54412;51.206;6.888;2023-04-06T09:37:50;100916.03;;;12.85;36.00
10460;BME280;54412;51.206;6.888;2023-04-06T09:40:20;100918.16;;;12.78;36.04
10460;BME280;54412;51.206;6.888;2023-04-06T09:42:49;100920.03;;;12.76;35.40
10460;BME280;54412;51.206;6.888;2023-04-06T09:45:17;100906.81;;;12.76;35.43
10460;BME280;54412;51.206;6.888;2023-04-06T09:47:44;100917.16;;;12.81;35.57
10460;BME280;54412;51.206;6.888;2023-04-06T09:50:13;100904.44;;;12.72;35.89
10460;BME280;54412;51.206;6.888;2023-04-06T09:52:48;100910.53;;;13.05;35.91
10460;BME280;54412;51.206;6.888;2023-04-06T09:55:37;100911.31;;;13.07;35.16
10460;BME280;54412;51.206;6.888;2023-04-06T09:58:09;100901.81;;;13.34;35.16
10460;BME280;54412;51.206;6.888;2023-04-06T10:03:45;100908.28;;;13.59;33.97
10460;BME280;54412;51.206;6.888;2023-04-06T10:06:20;100895.78;;;13.61;34.07
10460;BME280;54412;51.206;6.888;2023-04-06T10:08:50;100905.91;;;13.69;34.27
10460;BME280;54412;51.206;6.888;2023-04-06T10:11:18;100896.88;;;13.87;34.44
10460;BME280;54412;51.206;6.888;2023-04-06T10:13:47;100892.44;;;13.88;33.74
10460;BME280;54412;51.206;6.888;2023-04-06T10:16:15;100902.78;;;13.62;34.29
10460;BME280;54412;51.206;6.888;2023-04-06T10:18:50;100898.34;;;14.07;34.06
10460;BME280;54412;51.206;6.888;2023-04-06T10:21:23;100895.06;;;14.17;33.94
10460;BME280;54412;51.206;6.888;2023-04-06T10:23:55;100901.91;;;13.62;33.60
10460;BME280;54412;51.206;6.888;2023-04-06T10:26:23;100905.38;;;13.78;34.04
10460;BME280;54412;51.206;6.888;2023-04-06T10:28:49;100904.66;;;13.60;34.19
10460;BME280;54412;51.206;6.888;2023-04-06T10:31:27;100899.09;;;14.09;33.27
10460;BME280;54412;51.206;6.888;2023-04-06T10:33:59;100904.25;;;14.12;33.82
10460;BME280;54412;51.206;6.888;2023-04-06T10:36:31;100894.56;;;14.11;34.09
10460;BME280;54412;51.206;6.888;2023-04-06T10:39:00;100892.97;;;14.08;34.41
10460;BME280;54412;51.206;6.888;2023-04-06T10:41:41;100898.56;;;14.18;34.31
10460;BME280;54412;51.206;6.888;2023-04-06T10:44:07;100900.25;;;14.05;35.02
10460;BME280;54412;51.206;6.888;2023-04-06T10:46:33;100897.75;;;13.88;35.28
10460;BME280;54412;51.206;6.888;2023-04-06T10:49:12;100897.66;;;13.89;35.49
10460;BME280;54412;51.206;6.888;2023-04-06T10:51:39;100899.16;;;13.79;36.16
10460;BME280;54412;51.206;6.888;2023-04-06T10:54:06;100895.50;;;13.96;36.13
10460;BME280;54412;51.206;6.888;2023-04-06T10:56:36;100904.28;;;13.96;36.33
10460;BME280;54412;51.206;6.888;2023-04-06T10:59:02;100892.75;;;13.97;35.95
10460;BME280;54412;51.206;6.888;2023-04-06T11:01:28;100884.16;;;14.08;36.40
10460;BME280;54412;51.206;6.888;2023-04-06T11:03:57;100879.16;;;14.17;35.83
10460;BME280;54412;51.206;6.888;2023-04-06T11:06:28;100882.63;;;14.18;35.87
10460;BME280;54412;51.206;6.888;2023-04-06T11:08:57;100882.25;;;14.10;35.42
10460;BME280;54412;51.206;6.888;2023-04-06T11:11:25;100875.00;;;14.55;35.67
10460;BME280;54412;51.206;6.888;2023-04-06T11:13:59;100882.69;;;14.74;35.48
10460;BME280;54412;51.206;6.888;2023-04-06T11:16:31;100885.72;;;14.40;35.34
10460;BME280;54412;51.206;6.888;2023-04-06T11:19:05;100881.16;;;14.56;35.37
10460;BME280;54412;51.206;6.888;2023-04-06T11:21:45;100879.06;;;14.75;35.15
10460;BME280;54412;51.206;6.888;2023-04-06T11:24:22;100884.38;;;14.61;35.25
10460;BME280;54412;51.206;6.888;2023-04-06T11:26:58;100890.00;;;14.42;36.19
10460;BME280;54412;51.206;6.888;2023-04-06T11:29:28;100882.84;;;14.15;36.38
10460;BME280;54412;51.206;6.888;2023-04-06T11:32:01;100877.22;;;14.19;36.79
10460;BME280;54412;51.206;6.888;2023-04-06T11:34:29;100878.56;;;14.12;36.47
10460;BME280;54412;51.206;6.888;2023-04-06T11:37:00;100882.31;;;13.94;37.26
10460;BME280;54412;51.206;6.888;2023-04-06T11:39:28;100875.19;;;13.81;37.66
10460;BME280;54412;51.206;6.888;2023-04-06T11:41:59;100883.50;;;13.75;38.39
10460;BME280;54412;51.206;6.888;2023-04-06T11:44:37;100878.66;;;13.67;37.69
10460;BME280;54412;51.206;6.888;2023-04-06T11:47:07;100873.56;;;13.78;37.66
10460;BME280;54412;51.206;6.888;2023-04-06T11:49:38;100875.53;;;13.75;37.23
10460;BME280;54412;51.206;6.888;2023-04-06T11:52:25;100873.31;;;13.83;37.90
10460;BME280;54412;51.206;6.888;2023-04-06T11:54:53;100859.28;;;13.81;37.98
10460;BME280;54412;51.206;6.888;2023-04-06T11:57:21;100861.41;;;14.04;38.07
10460;BME280;54412;51.206;6.888;2023-04-06T11:59:49;100863.59;;;13.97;38.13
10460;BME280;54412;51.206;6.888;2023-04-06T12:02:14;100868.47;;;13.89;38.81
10460;BME280;54412;51.206;6.888;2023-04-06T12:04:40;100864.56;;;14.24;38.46
10460;BME280;54412;51.206;6.888;2023-04-06T12:07:06;100870.00;;;13.93;39.02
10460;BME280;54412;51.206;6.888;2023-04-06T12:09:32;100856.72;;;13.79;39.42
10460;BME280;54412;51.206;6.888;2023-04-06T12:11:57;100862.81;;;13.95;38.76
10460;BME280;54412;51.206;6.888;2023-04-06T12:14:23;100858.28;;;13.97;38.69
10460;BME280;54412;51.206;6.888;2023-04-06T12:16:49;100858.16;;;13.85;38.70
10460;BME280;54412;51.206;6.888;2023-04-06T12:19:15;100852.56;;;13.89;39.03
10460;BME280;54412;51.206;6.888;2023-04-06T12:21:41;100863.38;;;13.86;39.08
10460;BME280;54412;51.206;6.888;2023-04-06T12:24:07;100862.47;;;13.72;39.78
10460;BME280;54412;51.206;6.888;2023-04-06T12:26:34;100853.09;;;13.66;39.84
10460;BME280;54412;51.206;6.888;2023-04-06T12:29:00;100852.34;;;13.78;40.00
10460;BME280;54412;51.206;6.888;2023-04-06T12:31:33;100850.31;;;13.97;40.31
10460;BME280;54412;51.206;6.888;2023-04-06T12:33:59;100859.47;;;13.78;40.29
10460;BME280;54412;51.206;6.888;2023-04-06T12:36:25;100851.75;;;13.89;39.95
10460;BME280;54412;51.206;6.888;2023-04-06T12:38:51;100852.13;;;14.11;39.71
10460;BME280;54412;51.206;6.888;2023-04-06T12:41:18;100855.22;;;13.89;39.33
10460;BME280;54412;51.206;6.888;2023-04-06T12:43:44;100849.34;;;13.84;39.82
10460;BME280;54412;51.206;6.888;2023-04-06T12:46:11;100846.06;;;14.09;40.08
10460;BME280;54412;51.206;6.888;2023-04-06T12:48:37;100844.94;;;14.13;40.24
10460;BME280;54412;51.206;6.888;2023-04-06T12:51:05;100844.56;;;14.19;40.30
10460;BME280;54412;51.206;6.888;2023-04-06T12:53:32;100845.78;;;14.13;39.84
10460;BME280;54412;51.206;6.888;2023-04-06T12:56:01;100845.13;;;14.10;40.46
10460;BME280;54412;51.206;6.888;2023-04-06T12:58:27;100844.28;;;14.09;40.59